Time;durP1;ratioP1;P1;durP2;ratioP2;P2;SDS_P1;SDS_P2;PMS_P1;PMS_P2;Temp;Humidity;BMP_temperature;BMP_pressure;BME280_temperature;BME280_humidity;BME280_pressure;Samples;Min_cycle;Max_cycle;Signal;HPM_P1;HPM_P2
2022/01/29 00:02:07;;;;;;;;;;;9.80;99.90;;;;;;5075486;28;19931;-79
2022/01/29 00:04:33;;;;;;;;;;;9.90;99.90;;;;;;5075418;28;19908;-79
2022/01/29 00:06:59;;;;;;;;;;;9.90;99.90;;;;;;5075384;28;19916;-79
2022/01/29 00:09:24;;;;;;;;;;;9.90;99.90;;;;;;5075281;28;19965;-79
2022/01/29 00:11:50;;;;;;;;;;;10.00;99.90;;;;;;5075300;28;19908;-79
2022/01/29 00:14:16;;;;;;;;;;;10.10;99.90;;;;;;5075398;28;19920;-79
2022/01/29 00:16:41;;;;;;;;;;;10.10;99.90;;;;;;5075181;28;20007;-79
2022/01/29 00:19:07;;;;;;;;;;;10.10;99.90;;;;;;5075188;28;19909;-79
2022/01/29 00:21:32;;;;;;;;;;;10.30;99.90;;;;;;5075050;28;19908;-79
2022/01/29 00:23:58;;;;;;;;;;;10.30;99.90;;;;;;5075012;28;19995;-79
2022/01/29 00:26:26;;;;;;;;;;;10.20;99.90;;;;;;5075380;28;19930;-79
2022/01/29 00:28:52;;;;;;;;;;;10.30;99.90;;;;;;5074858;28;19919;-78
2022/01/29 00:31:18;;;;;;;;;;;10.40;99.90;;;;;;5075062;28;19909;-79
2022/01/29 00:33:44;;;;;;;;;;;10.40;99.90;;;;;;5056875;28;19954;-79
2022/01/29 00:36:09;;;;;;;;;;;10.40;99.90;;;;;;5075042;28;19999;-79
2022/01/29 00:38:35;;;;;;;;;;;10.30;99.90;;;;;;5056839;28;19948;-79
2022/01/29 00:41:01;;;;;;;;;;;10.30;99.90;;;;;;5056552;28;20368;-79
2022/01/29 00:43:27;;;;;;;;;;;10.20;99.90;;;;;;5074632;28;20279;-79
2022/01/29 00:45:52;;;;;;;;;;;10.00;99.90;;;;;;5074670;28;19995;-79
2022/01/29 00:48:18;;;;;;;;;;;10.10;99.90;;;;;;5056481;28;19913;-79
2022/01/29 00:50:43;;;;;;;;;;;10.10;99.90;;;;;;5074765;28;19999;-79
2022/01/29 00:53:09;;;;;;;;;;;10.20;99.90;;;;;;5056397;28;19955;-79
2022/01/29 00:55:35;;;;;;;;;;;10.10;99.90;;;;;;5056468;28;19913;-79
2022/01/29 00:58:00;;;;;;;;;;;10.10;99.90;;;;;;5055918;28;20280;-79
2022/01/29 01:00:26;;;;;;;;;;;10.10;99.90;;;;;;5074275;28;20373;-79
2022/01/29 01:02:51;;;;;;;;;;;9.90;99.90;;;;;;5074284;28;19908;-79
2022/01/29 01:05:17;;;;;;;;;;;9.80;99.90;;;;;;5074529;28;19908;-79
2022/01/29 01:07:43;;;;;;;;;;;9.80;99.90;;;;;;5074051;28;19913;-79
2022/01/29 01:10:09;;;;;;;;;;;9.80;99.90;;;;;;5074509;28;19916;-79
2022/01/29 01:12:35;;;;;;;;;;;9.80;99.90;;;;;;5074265;28;19908;-79
2022/01/29 01:15:01;;;;;;;;;;;9.70;99.90;;;;;;5073852;28;19921;-79
2022/01/29 01:17:26;;;;;;;;;;;9.70;99.90;;;;;;5074035;28;20440;-79
2022/01/29 01:19:52;;;;;;;;;;;9.60;99.90;;;;;;5056099;28;19944;-79
2022/01/29 01:22:18;;;;;;;;;;;9.70;99.90;;;;;;5074064;28;19909;-78
2022/01/29 01:24:44;;;;;;;;;;;9.60;99.90;;;;;;5055905;28;19909;-78
2022/01/29 01:27:10;;;;;;;;;;;9.50;99.90;;;;;;5073789;28;19916;-79
2022/01/29 01:29:35;;;;;;;;;;;9.50;99.90;;;;;;5073817;28;19932;-80
2022/01/29 01:32:01;;;;;;;;;;;9.50;99.90;;;;;;5055839;28;19976;-79
2022/01/29 01:34:31;;;;;;;;;;;9.50;99.90;;;;;;5073965;28;19908;-78
2022/01/29 01:37:02;;;;;;;;;;;9.50;99.90;;;;;;5055793;28;19920;-79
2022/01/29 01:39:31;;;;;;;;;;;9.50;99.90;;;;;;5073734;28;19908;-79
2022/01/29 01:42:07;;;;;;;;;;;9.50;99.90;;;;;;5055700;28;19935;-79
2022/01/29 01:44:45;;;;;;;;;;;9.50;99.90;;;;;;5055644;28;19908;-79
2022/01/29 01:47:10;;;;;;;;;;;9.50;99.90;;;;;;5073704;28;20047;-79
2022/01/29 01:49:36;;;;;;;;;;;9.50;99.90;;;;;;5073576;28;19920;-79
2022/01/29 01:52:02;;;;;;;;;;;9.50;99.90;;;;;;5073846;28;19916;-79
2022/01/29 01:54:28;;;;;;;;;;;9.60;99.90;;;;;;5055497;28;19908;-79
2022/01/29 01:56:53;;;;;;;;;;;9.70;99.90;;;;;;5073491;28;19909;-79
2022/01/29 01:59:19;;;;;;;;;;;9.90;99.90;;;;;;5073473;28;19909;-79
2022/01/29 02:01:45;;;;;;;;;;;9.70;99.90;;;;;;5073501;28;19939;-79
2022/01/29 02:04:10;;;;;;;;;;;9.90;99.90;;;;;;5073671;28;20002;-79
2022/01/29 02:06:36;;;;;;;;;;;9.80;99.90;;;;;;5073432;28;20054;-79
2022/01/29 02:09:02;;;;;;;;;;;9.90;99.90;;;;;;5074065;28;19912;-79
2022/01/29 02:11:28;;;;;;;;;;;10.00;99.90;;;;;;5059521;28;19908;-79
2022/01/29 02:13:56;;;;;;;;;;;10.10;99.90;;;;;;5077352;28;19987;-79
2022/01/29 02:16:22;;;;;;;;;;;10.10;99.90;;;;;;5077679;28;19909;-79
2022/01/29 02:18:48;;;;;;;;;;;10.00;99.90;;;;;;5077551;28;20284;-79
2022/01/29 02:21:14;;;;;;;;;;;10.00;99.90;;;;;;5077490;28;19940;-79
2022/01/29 02:23:40;;;;;;;;;;;10.10;99.90;;;;;;5059395;28;19909;-79
2022/01/29 02:26:05;;;;;;;;;;;10.10;99.90;;;;;;5077348;28;19909;-79
2022/01/29 02:28:31;;;;;;;;;;;10.10;99.90;;;;;;5077218;28;19963;-79
2022/01/29 02:31:03;;;;;;;;;;;10.00;99.90;;;;;;5077240;28;19934;-79
2022/01/29 02:33:30;;;;;;;;;;;10.10;99.90;;;;;;5077195;28;19913;-79
2022/01/29 02:35:57;;;;;;;;;;;10.10;99.90;;;;;;5077336;28;19912;-79
2022/01/29 02:38:24;;;;;;;;;;;10.00;99.90;;;;;;5059159;28;19915;-79
2022/01/29 02:40:54;;;;;;;;;;;10.00;99.90;;;;;;5077049;28;19909;-79
2022/01/29 02:43:21;;;;;;;;;;;10.00;99.90;;;;;;5059016;28;19909;-79
2022/01/29 02:45:48;;;;;;;;;;;9.90;99.90;;;;;;5076897;28;20434;-79
2022/01/29 02:48:13;;;;;;;;;;;10.00;99.90;;;;;;5076832;28;19919;-79
2022/01/29 02:50:40;;;;;;;;;;;10.10;99.90;;;;;;5076802;28;19908;-79
2022/01/29 02:53:06;;;;;;;;;;;9.90;99.90;;;;;;5076720;28;20300;-79
2022/01/29 02:55:31;;;;;;;;;;;9.80;99.90;;;;;;5076719;28;19916;-79
2022/01/29 02:57:57;;;;;;;;;;;9.70;99.90;;;;;;5076652;28;19908;-79
2022/01/29 03:00:23;;;;;;;;;;;9.70;99.90;;;;;;5076644;28;20296;-79
2022/01/29 03:02:49;;;;;;;;;;;9.60;99.90;;;;;;5076556;28;19908;-79
2022/01/29 03:05:14;;;;;;;;;;;9.60;99.90;;;;;;5076561;28;19915;-79
2022/01/29 03:07:40;;;;;;;;;;;9.60;99.90;;;;;;5076592;28;19912;-79
2022/01/29 03:10:06;;;;;;;;;;;9.60;99.90;;;;;;5058480;28;19915;-79
2022/01/29 03:12:32;;;;;;;;;;;9.70;99.90;;;;;;5076687;28;19909;-79
2022/01/29 03:14:57;;;;;;;;;;;9.80;99.90;;;;;;5076366;28;19928;-79
2022/01/29 03:17:23;;;;;;;;;;;9.90;99.90;;;;;;5076410;28;19915;-79
2022/01/29 03:19:50;;;;;;;;;;;9.80;99.90;;;;;;5075851;28;19965;-79
2022/01/29 03:22:16;;;;;;;;;;;9.90;99.90;;;;;;5058246;28;19909;-79
2022/01/29 03:24:41;;;;;;;;;;;9.90;99.90;;;;;;5076232;28;19909;-79
2022/01/29 03:27:07;;;;;;;;;;;9.90;99.90;;;;;;5076159;28;19956;-78
2022/01/29 03:29:33;;;;;;;;;;;9.90;99.90;;;;;;5058094;28;19919;-79
2022/01/29 03:31:58;;;;;;;;;;;9.80;99.90;;;;;;5076127;28;20280;-79
2022/01/29 03:34:24;;;;;;;;;;;9.70;99.90;;;;;;5075705;28;19944;-79
2022/01/29 03:36:50;;;;;;;;;;;9.70;99.90;;;;;;5076026;28;19951;-79
2022/01/29 03:39:15;;;;;;;;;;;9.70;99.90;;;;;;5075947;28;20388;-79
2022/01/29 03:41:41;;;;;;;;;;;9.60;99.90;;;;;;5075879;28;19908;-79
2022/01/29 03:44:07;;;;;;;;;;;9.60;99.90;;;;;;5075839;28;19931;-79
2022/01/29 03:46:33;;;;;;;;;;;9.60;99.90;;;;;;5075852;28;19940;-79
2022/01/29 03:48:59;;;;;;;;;;;9.60;99.90;;;;;;5075692;28;20013;-79
2022/01/29 03:51:25;;;;;;;;;;;9.60;99.90;;;;;;5075711;28;19909;-79
2022/01/29 03:53:50;;;;;;;;;;;9.60;99.90;;;;;;5075709;28;19908;-79
2022/01/29 03:56:17;;;;;;;;;;;9.60;99.90;;;;;;5075713;28;19975;-79
2022/01/29 03:58:44;;;;;;;;;;;9.60;99.90;;;;;;5057571;28;19908;-79
2022/01/29 04:01:09;;;;;;;;;;;9.70;99.90;;;;;;5075708;28;19912;-79
2022/01/29 04:03:35;;;;;;;;;;;9.70;99.90;;;;;;5076010;28;20462;-79
2022/01/29 04:06:01;;;;;;;;;;;9.60;99.90;;;;;;5075457;28;19916;-79
2022/01/29 04:08:27;;;;;;;;;;;9.70;99.90;;;;;;5075374;28;19913;-79
2022/01/29 04:10:53;;;;;;;;;;;9.60;99.90;;;;;;5075387;28;19915;-79
2022/01/29 04:13:23;;;;;;;;;;;9.60;99.90;;;;;;5075364;28;20387;-79
2022/01/29 04:15:49;;;;;;;;;;;9.60;99.90;;;;;;5075259;28;19927;-79
2022/01/29 04:18:14;;;;;;;;;;;9.70;99.90;;;;;;5075311;28;19909;-79
2022/01/29 04:20:40;;;;;;;;;;;9.70;99.90;;;;;;5075090;28;19916;-79
2022/01/29 04:23:06;;;;;;;;;;;9.70;99.90;;;;;;5075133;28;19913;-79
2022/01/29 04:25:32;;;;;;;;;;;9.70;99.90;;;;;;5075131;28;19916;-78
2022/01/29 04:27:58;;;;;;;;;;;9.70;99.90;;;;;;5075017;28;19912;-79
2022/01/29 04:30:32;;;;;;;;;;;9.70;99.90;;;;;;5074959;28;20273;-79
2022/01/29 04:33:04;;;;;;;;;;;9.70;99.90;;;;;;5074365;28;19999;-79
2022/01/29 04:35:31;;;;;;;;;;;9.80;99.90;;;;;;5056640;28;19908;-79
2022/01/29 04:37:56;;;;;;;;;;;9.80;99.90;;;;;;5056857;28;19995;-79
2022/01/29 04:40:22;;;;;;;;;;;9.80;99.90;;;;;;5074781;28;19959;-79
2022/01/29 04:42:48;;;;;;;;;;;9.80;99.90;;;;;;5074701;28;19909;-79
2022/01/29 04:45:13;;;;;;;;;;;9.80;99.90;;;;;;5056759;28;19908;-79
2022/01/29 04:47:39;;;;;;;;;;;9.70;99.90;;;;;;5074621;28;19920;-79
2022/01/29 04:50:05;;;;;;;;;;;9.80;99.90;;;;;;5056659;28;19912;-79
2022/01/29 04:52:31;;;;;;;;;;;9.80;99.90;;;;;;5074358;28;19915;-79
2022/01/29 04:54:56;;;;;;;;;;;9.80;99.90;;;;;;5074401;28;19912;-79
2022/01/29 04:57:22;;;;;;;;;;;9.80;99.90;;;;;;5074380;28;19912;-79
2022/01/29 04:59:47;;;;;;;;;;;9.60;99.90;;;;;;5074362;28;20280;-79
2022/01/29 05:02:13;;;;;;;;;;;9.60;99.90;;;;;;5074506;28;19913;-79
2022/01/29 05:04:38;;;;;;;;;;;9.70;99.90;;;;;;5074296;28;20311;-78
2022/01/29 05:07:04;;;;;;;;;;;9.70;99.90;;;;;;5074450;28;19908;-79
2022/01/29 05:09:30;;;;;;;;;;;9.70;99.90;;;;;;5056169;28;20368;-78
2022/01/29 05:11:57;;;;;;;;;;;9.70;99.90;;;;;;5074398;28;19962;-79
2022/01/29 05:14:39;;;;;;;;;;;9.70;99.90;;;;;;5073816;28;19927;-79
2022/01/29 05:28:03;;;;;;;;;;;9.60;99.90;;;;;;5073748;28;19919;-79
2022/01/29 05:30:29;;;;;;;;;;;9.60;99.90;;;;;;5073885;28;19909;-78
2022/01/29 05:32:54;;;;;;;;;;;9.70;99.90;;;;;;5073867;28;20396;-79
2022/01/29 05:35:20;;;;;;;;;;;9.60;99.90;;;;;;5074082;28;19916;-80
2022/01/29 05:37:49;;;;;;;;;;;9.60;99.90;;;;;;5073668;28;19970;-79
2022/01/29 05:40:15;;;;;;;;;;;9.60;99.90;;;;;;5073883;28;19915;-79
2022/01/29 05:42:40;;;;;;;;;;;9.70;99.90;;;;;;5055534;28;20007;-79
2022/01/29 05:45:06;;;;;;;;;;;9.70;99.90;;;;;;5055737;28;19948;-79
2022/01/29 05:47:32;;;;;;;;;;;9.60;99.90;;;;;;5073497;28;19954;-78
2022/01/29 05:49:57;;;;;;;;;;;9.60;99.90;;;;;;5073647;28;20361;-79
2022/01/29 05:52:23;;;;;;;;;;;9.50;99.90;;;;;;5073547;28;20351;-79
2022/01/29 05:54:51;;;;;;;;;;;9.50;99.90;;;;;;5073574;28;20369;-79
2022/01/29 05:57:16;;;;;;;;;;;9.60;99.90;;;;;;5074025;28;19908;-79
2022/01/29 05:59:42;;;;;;;;;;;9.70;99.90;;;;;;5073551;28;19931;-79
2022/01/29 06:02:08;;;;;;;;;;;9.70;99.90;;;;;;5073645;28;19912;-79
2022/01/29 06:04:33;;;;;;;;;;;9.70;99.90;;;;;;5073449;28;19916;-79
2022/01/29 06:06:59;;;;;;;;;;;9.80;99.90;;;;;;5073499;28;20279;-79
2022/01/29 06:09:24;;;;;;;;;;;9.80;99.90;;;;;;5073394;28;19913;-79
2022/01/29 06:11:50;;;;;;;;;;;9.80;99.90;;;;;;5073456;28;19991;-79
2022/01/29 06:14:16;;;;;;;;;;;9.80;99.90;;;;;;5073216;28;19924;-79
2022/01/29 06:16:41;;;;;;;;;;;9.80;99.90;;;;;;5055369;28;20003;-79
2022/01/29 06:19:07;;;;;;;;;;;9.80;99.90;;;;;;5073823;28;19912;-79
2022/01/29 06:21:33;;;;;;;;;;;9.70;99.90;;;;;;5055336;28;19916;-79
2022/01/29 06:23:59;;;;;;;;;;;9.70;99.90;;;;;;5073529;28;19909;-79
2022/01/29 06:26:24;;;;;;;;;;;9.60;99.90;;;;;;5073305;28;19909;-79
2022/01/29 06:28:50;;;;;;;;;;;9.60;99.90;;;;;;5073179;28;20437;-79
2022/01/29 06:31:16;;;;;;;;;;;9.60;99.90;;;;;;5073710;28;19913;-79
2022/01/29 06:33:41;;;;;;;;;;;9.60;99.90;;;;;;5073584;28;19943;-79
2022/01/29 06:36:07;;;;;;;;;;;9.60;99.90;;;;;;5073274;28;19958;-79
2022/01/29 06:38:33;;;;;;;;;;;9.60;99.90;;;;;;5073275;28;19908;-79
2022/01/29 06:40:59;;;;;;;;;;;9.60;99.90;;;;;;5073126;28;20015;-78
2022/01/29 06:43:24;;;;;;;;;;;9.60;99.90;;;;;;5073276;28;20432;-79
2022/01/29 06:45:50;;;;;;;;;;;9.50;99.90;;;;;;5055049;28;20062;-79
2022/01/29 06:48:15;;;;;;;;;;;9.50;99.90;;;;;;5073082;28;20011;-79
2022/01/29 06:50:41;;;;;;;;;;;9.60;99.90;;;;;;5073101;28;19915;-79
2022/01/29 06:53:07;;;;;;;;;;;9.50;99.90;;;;;;5072673;28;19947;-79
2022/01/29 06:55:33;;;;;;;;;;;9.50;99.90;;;;;;5074473;28;20395;-79
2022/01/29 06:57:58;;;;;;;;;;;9.60;99.90;;;;;;5076842;28;19963;-79
2022/01/29 07:00:24;;;;;;;;;;;9.60;99.90;;;;;;5076703;28;19962;-79
2022/01/29 07:02:50;;;;;;;;;;;9.50;99.90;;;;;;5076670;28;19909;-79
2022/01/29 07:05:15;;;;;;;;;;;9.50;99.90;;;;;;5076552;28;19912;-79
2022/01/29 07:07:41;;;;;;;;;;;9.50;99.90;;;;;;5076527;28;19909;-79
2022/01/29 07:10:07;;;;;;;;;;;9.50;99.90;;;;;;5076466;28;20365;-79
2022/01/29 07:12:33;;;;;;;;;;;9.50;99.90;;;;;;5076568;28;19908;-78
2022/01/29 07:14:59;;;;;;;;;;;9.50;99.90;;;;;;5076406;28;19921;-79
2022/01/29 07:17:24;;;;;;;;;;;9.40;99.90;;;;;;5076560;28;20292;-79
2022/01/29 07:19:51;;;;;;;;;;;9.40;99.90;;;;;;5076323;28;19943;-79
2022/01/29 07:22:17;;;;;;;;;;;9.50;99.90;;;;;;5076817;28;20364;-79
2022/01/29 07:24:43;;;;;;;;;;;9.50;99.90;;;;;;5058259;28;19915;-79
2022/01/29 07:27:09;;;;;;;;;;;9.40;99.90;;;;;;5076199;28;19995;-79
2022/01/29 07:29:34;;;;;;;;;;;9.40;99.90;;;;;;5076448;28;19935;-79
2022/01/29 07:32:00;;;;;;;;;;;9.40;99.90;;;;;;5076216;28;20376;-79
2022/01/29 07:34:27;;;;;;;;;;;9.30;99.90;;;;;;5076164;28;19912;-78
2022/01/29 07:36:53;;;;;;;;;;;9.30;99.90;;;;;;5076045;28;19979;-79
2022/01/29 07:39:19;;;;;;;;;;;9.40;99.90;;;;;;5076001;28;19915;-79
2022/01/29 07:41:44;;;;;;;;;;;9.30;99.90;;;;;;5075967;28;19912;-79
2022/01/29 07:44:10;;;;;;;;;;;9.30;99.90;;;;;;5075876;28;19909;-78
2022/01/29 07:46:36;;;;;;;;;;;9.30;99.90;;;;;;5075898;28;19913;-79
2022/01/29 07:49:02;;;;;;;;;;;9.30;99.90;;;;;;5057726;28;19921;-79
2022/01/29 07:51:27;;;;;;;;;;;9.10;99.90;;;;;;5075846;28;19909;-79
2022/01/29 07:53:53;;;;;;;;;;;9.20;99.90;;;;;;5075620;28;19909;-79
2022/01/29 07:56:20;;;;;;;;;;;9.20;99.90;;;;;;5057668;28;19909;-79
2022/01/29 07:58:46;;;;;;;;;;;9.20;99.90;;;;;;5075722;28;20364;-79
2022/01/29 08:01:13;;;;;;;;;;;9.40;99.90;;;;;;5075541;28;19955;-79
2022/01/29 08:03:38;;;;;;;;;;;9.40;99.90;;;;;;5075487;28;19916;-79
2022/01/29 08:06:04;;;;;;;;;;;9.40;99.90;;;;;;5075371;28;19909;-79
2022/01/29 08:08:30;;;;;;;;;;;9.50;99.90;;;;;;5074620;28;19919;-79
2022/01/29 08:10:55;;;;;;;;;;;9.60;99.90;;;;;;5075066;28;20446;-79
2022/01/29 08:13:21;;;;;;;;;;;9.60;99.90;;;;;;5075331;28;19936;-78
2022/01/29 08:15:46;;;;;;;;;;;9.70;99.90;;;;;;5075291;28;19924;-79
2022/01/29 08:18:12;;;;;;;;;;;9.70;99.90;;;;;;5075474;28;19909;-79
2022/01/29 08:20:39;;;;;;;;;;;9.70;99.90;;;;;;5075350;28;19951;-78
2022/01/29 08:23:05;;;;;;;;;;;9.70;99.90;;;;;;5075147;28;19916;-79
2022/01/29 08:25:31;;;;;;;;;;;9.70;99.90;;;;;;5075126;28;19931;-79
2022/01/29 08:27:57;;;;;;;;;;;9.80;99.90;;;;;;5056990;28;20365;-79
2022/01/29 08:30:22;;;;;;;;;;;9.80;99.90;;;;;;5057055;28;20046;-79
2022/01/29 08:32:48;;;;;;;;;;;9.80;99.90;;;;;;5075248;28;20065;-79
2022/01/29 08:35:15;;;;;;;;;;;9.80;99.90;;;;;;5075022;28;19908;-79
2022/01/29 08:37:41;;;;;;;;;;;9.90;99.90;;;;;;5056923;28;20284;-79
2022/01/29 08:40:07;;;;;;;;;;;9.80;99.90;;;;;;5074804;28;19915;-79
2022/01/29 08:42:32;;;;;;;;;;;9.70;99.90;;;;;;5075148;28;19909;-78
2022/01/29 08:44:59;;;;;;;;;;;9.90;99.90;;;;;;5074723;28;19978;-79
2022/01/29 08:47:24;;;;;;;;;;;9.80;99.90;;;;;;5074716;28;19909;-79
2022/01/29 08:49:50;;;;;;;;;;;9.90;99.90;;;;;;5075044;28;20328;-79
2022/01/29 08:52:16;;;;;;;;;;;9.80;99.90;;;;;;5074552;28;20011;-79
2022/01/29 08:54:41;;;;;;;;;;;10.00;99.90;;;;;;5074799;28;19954;-79
2022/01/29 08:57:07;;;;;;;;;;;10.00;99.90;;;;;;5074632;28;20391;-80
2022/01/29 08:59:32;;;;;;;;;;;10.00;99.90;;;;;;5074443;28;19908;-79
2022/01/29 09:01:58;;;;;;;;;;;10.10;99.90;;;;;;5074424;28;20372;-80
2022/01/29 09:04:23;;;;;;;;;;;10.30;99.90;;;;;;5074544;28;19909;-79
2022/01/29 09:06:49;;;;;;;;;;;10.30;99.90;;;;;;5074387;28;20364;-79
2022/01/29 09:09:20;;;;;;;;;;;10.20;99.90;;;;;;5074153;28;19919;-81
2022/01/29 09:11:46;;;;;;;;;;;10.10;99.90;;;;;;5074820;28;19912;-79
2022/01/29 09:14:12;;;;;;;;;;;10.20;99.90;;;;;;5074153;28;19981;-79
2022/01/29 09:16:37;;;;;;;;;;;10.30;99.90;;;;;;5074024;28;20303;-78
2022/01/29 09:19:03;;;;;;;;;;;10.20;99.90;;;;;;5073680;28;20372;-79
2022/01/29 09:21:29;;;;;;;;;;;10.20;99.90;;;;;;5074216;28;19909;-79
2022/01/29 09:23:56;;;;;;;;;;;10.30;99.90;;;;;;5074368;28;19908;-79
2022/01/29 09:26:22;;;;;;;;;;;10.20;99.90;;;;;;5073940;28;19967;-79
2022/01/29 09:28:48;;;;;;;;;;;10.60;99.90;;;;;;5074075;28;20364;-79
2022/01/29 09:31:13;;;;;;;;;;;10.60;99.90;;;;;;5055939;28;20010;-79
2022/01/29 09:33:39;;;;;;;;;;;10.50;99.90;;;;;;5041324;28;19927;-79
2022/01/29 09:36:04;;;;;;;;;;;10.40;99.90;;;;;;5053846;28;19908;-79
2022/01/29 09:38:30;;;;;;;;;;;10.50;99.90;;;;;;5035997;28;19916;-78
2022/01/29 09:40:56;;;;;;;;;;;10.50;99.90;;;;;;5053783;28;20029;-79
2022/01/29 09:43:25;;;;;;;;;;;10.50;99.90;;;;;;5060126;28;19915;-79
2022/01/29 09:45:51;;;;;;;;;;;10.50;99.90;;;;;;5074005;28;19908;-79
2022/01/29 09:48:24;;;;;;;;;;;10.50;99.90;;;;;;5073680;28;20289;-79
2022/01/29 09:50:51;;;;;;;;;;;10.50;99.90;;;;;;5073670;28;19909;-79
2022/01/29 09:53:16;;;;;;;;;;;10.60;99.90;;;;;;5069588;28;20361;-79
2022/01/29 09:55:43;;;;;;;;;;;10.70;99.90;;;;;;5073546;28;19908;-79
2022/01/29 09:58:09;;;;;;;;;;;10.70;99.90;;;;;;5055659;28;19951;-79
2022/01/29 10:00:35;;;;;;;;;;;10.80;99.90;;;;;;5073901;28;19999;-79
2022/01/29 10:03:10;;;;;;;;;;;11.00;99.90;;;;;;5067854;28;19920;-79
2022/01/29 10:05:40;;;;;;;;;;;11.00;99.90;;;;;;5053562;28;19913;-79
2022/01/29 10:08:06;;;;;;;;;;;11.10;99.90;;;;;;5053781;28;19920;-78
2022/01/29 10:10:42;;;;;;;;;;;11.20;99.90;;;;;;5053592;28;19931;-79
2022/01/29 10:13:26;;;;;;;;;;;11.20;99.90;;;;;;5054630;28;20387;-78
2022/01/29 10:15:52;;;;;;;;;;;11.10;99.90;;;;;;5055518;28;19927;-79
2022/01/29 10:18:21;;;;;;;;;;;11.10;99.90;;;;;;5055890;28;20272;-78
2022/01/29 10:20:47;;;;;;;;;;;11.10;99.90;;;;;;5073608;28;19920;-78
2022/01/29 10:23:13;;;;;;;;;;;11.10;99.90;;;;;;5070166;28;19958;-78
2022/01/29 10:25:42;;;;;;;;;;;11.10;99.90;;;;;;5073671;28;20373;-78
2022/01/29 10:28:10;;;;;;;;;;;11.30;99.90;;;;;;5073188;28;19912;-79
2022/01/29 10:30:36;;;;;;;;;;;11.30;99.90;;;;;;5075361;28;20377;-79
2022/01/29 10:33:16;;;;;;;;;;;11.40;99.90;;;;;;5053384;28;20448;-79
2022/01/29 10:35:43;;;;;;;;;;;11.40;99.90;;;;;;5038387;28;19917;-78
2022/01/29 10:38:08;;;;;;;;;;;11.30;99.90;;;;;;5057155;28;19909;-79
2022/01/29 10:40:34;;;;;;;;;;;11.50;99.90;;;;;;5057630;28;20280;-78
2022/01/29 10:43:04;;;;;;;;;;;11.50;99.90;;;;;;5059403;28;19916;-78
2022/01/29 10:45:34;;;;;;;;;;;11.60;99.90;;;;;;5077157;28;19908;-79
2022/01/29 10:48:00;;;;;;;;;;;11.60;99.90;;;;;;5077240;28;19912;-79
2022/01/29 10:50:26;;;;;;;;;;;11.50;99.90;;;;;;5077022;28;19908;-78
2022/01/29 10:52:51;;;;;;;;;;;11.50;99.90;;;;;;5074008;28;20370;-79
2022/01/29 10:55:17;;;;;;;;;;;11.50;99.90;;;;;;5077059;28;19909;-78
2022/01/29 10:57:46;;;;;;;;;;;11.50;99.90;;;;;;5076937;28;20337;-78
2022/01/29 11:00:15;;;;;;;;;;;11.70;99.90;;;;;;5059150;28;20292;-79
2022/01/29 11:02:42;;;;;;;;;;;11.90;99.90;;;;;;5074426;28;19912;-78
2022/01/29 11:05:08;;;;;;;;;;;11.90;99.90;;;;;;5075295;28;19915;-79
2022/01/29 11:07:34;;;;;;;;;;;11.90;99.90;;;;;;5076806;28;20276;-79
2022/01/29 11:10:02;;;;;;;;;;;11.60;99.90;;;;;;5076684;28;20288;-79
2022/01/29 11:12:30;;;;;;;;;;;11.60;99.90;;;;;;5076465;28;20365;-79
2022/01/29 11:15:00;;;;;;;;;;;11.50;99.90;;;;;;5074356;28;19995;-79
2022/01/29 11:17:29;;;;;;;;;;;11.60;99.90;;;;;;5076711;28;20466;-78
2022/01/29 11:19:54;;;;;;;;;;;11.60;99.90;;;;;;5076589;28;20254;-78
2022/01/29 11:22:29;;;;;;;;;;;11.70;99.90;;;;;;5076470;28;19908;-79
2022/01/29 11:24:59;;;;;;;;;;;11.60;99.90;;;;;;5076313;28;19987;-78
2022/01/29 11:27:26;;;;;;;;;;;11.70;99.90;;;;;;5058248;28;19909;-79
2022/01/29 11:29:57;;;;;;;;;;;11.70;99.90;;;;;;5076098;28;20369;-78
2022/01/29 11:32:23;;;;;;;;;;;12.00;99.90;;;;;;5076086;28;19909;-79
2022/01/29 11:35:02;;;;;;;;;;;11.90;99.90;;;;;;5076098;28;20288;-78
2022/01/29 11:37:37;;;;;;;;;;;12.00;99.90;;;;;;5076088;28;20387;-79
2022/01/29 11:40:13;;;;;;;;;;;11.90;99.90;;;;;;5076149;28;19909;-79
2022/01/29 11:42:50;;;;;;;;;;;12.10;99.90;;;;;;5075773;28;20287;-79
2022/01/29 11:45:42;;;;;;;;;;;11.80;99.90;;;;;;5074979;28;19932;-79
2022/01/29 11:48:08;;;;;;;;;;;11.90;99.90;;;;;;5075324;28;20015;-79
2022/01/29 11:50:34;;;;;;;;;;;12.00;99.90;;;;;;5057928;28;19916;-79
2022/01/29 11:53:01;;;;;;;;;;;11.90;99.90;;;;;;5075699;28;19913;-79
2022/01/29 11:55:40;;;;;;;;;;;11.80;99.90;;;;;;5075634;28;19913;-79
2022/01/29 11:58:15;;;;;;;;;;;12.00;99.90;;;;;;5073958;28;19919;-79
2022/01/29 12:00:41;;;;;;;;;;;11.90;99.90;;;;;;5057023;28;19909;-79
2022/01/29 12:03:07;;;;;;;;;;;11.70;99.90;;;;;;5074571;28;19961;-78
2022/01/29 12:05:59;;;;;;;;;;;11.60;99.90;;;;;;5074579;28;19995;-79
2022/01/29 12:08:24;;;;;;;;;;;11.60;99.90;;;;;;5025924;28;19920;-79
2022/01/29 12:10:56;;;;;;;;;;;11.70;99.90;;;;;;5074817;28;19908;-78
2022/01/29 12:13:21;;;;;;;;;;;11.80;99.90;;;;;;5075363;28;19955;-79
2022/01/29 12:15:47;;;;;;;;;;;11.80;99.90;;;;;;5075367;28;19920;-78
2022/01/29 12:18:42;;;;;;;;;;;11.70;99.90;;;;;;5075303;28;19908;-79
2022/01/29 12:21:07;;;;;;;;;;;11.80;99.90;;;;;;5040265;28;19962;-79
2022/01/29 12:23:45;;;;;;;;;;;11.90;99.90;;;;;;5075188;28;19909;-79
2022/01/29 12:26:10;;;;;;;;;;;11.80;99.90;;;;;;5056893;28;20330;-78
2022/01/29 12:28:45;;;;;;;;;;;11.90;99.90;;;;;;5075365;28;19916;-79
2022/01/29 12:31:15;;;;;;;;;;;11.90;99.90;;;;;;5075220;28;19909;-79
2022/01/29 12:33:40;;;;;;;;;;;12.00;99.90;;;;;;5074990;28;20003;-78
2022/01/29 12:36:07;;;;;;;;;;;12.20;99.90;;;;;;5074950;28;20001;-78
2022/01/29 12:38:39;;;;;;;;;;;12.10;99.90;;;;;;5074884;28;19912;-78
2022/01/29 12:41:07;;;;;;;;;;;11.90;99.90;;;;;;5075046;28;19915;-78
2022/01/29 12:43:52;;;;;;;;;;;12.10;99.90;;;;;;5074778;28;19917;-79
2022/01/29 12:46:19;;;;;;;;;;;12.20;99.90;;;;;;5074949;28;19912;-78
2022/01/29 12:48:56;;;;;;;;;;;12.10;99.90;;;;;;5074915;28;20361;-79
2022/01/29 12:51:22;;;;;;;;;;;12.40;99.90;;;;;;5074716;28;19912;-78
2022/01/29 12:53:55;;;;;;;;;;;12.40;99.90;;;;;;5073881;28;19916;-79
2022/01/29 12:56:20;;;;;;;;;;;12.40;99.90;;;;;;5074775;28;19908;-79
2022/01/29 12:58:46;;;;;;;;;;;12.60;99.90;;;;;;5074759;28;20368;-79
2022/01/29 13:01:15;;;;;;;;;;;12.30;99.90;;;;;;5074384;28;19908;-79
2022/01/29 13:03:41;;;;;;;;;;;12.40;99.90;;;;;;5074345;28;19982;-79
2022/01/29 13:06:14;;;;;;;;;;;12.40;99.90;;;;;;5074339;28;20003;-79
2022/01/29 13:08:40;;;;;;;;;;;12.50;99.90;;;;;;5074224;28;19919;-79
2022/01/29 13:11:22;;;;;;;;;;;12.40;99.90;;;;;;5074262;28;19908;-79
2022/01/29 13:13:47;;;;;;;;;;;12.30;99.90;;;;;;5073992;28;20042;-79
2022/01/29 13:16:13;;;;;;;;;;;12.30;99.90;;;;;;5056024;28;19926;-79
2022/01/29 13:18:39;;;;;;;;;;;12.20;99.90;;;;;;5074134;28;20250;-79
2022/01/29 13:21:04;;;;;;;;;;;12.40;99.90;;;;;;5074120;28;19908;-79
2022/01/29 13:23:34;;;;;;;;;;;12.40;99.90;;;;;;5074037;28;19916;-79
2022/01/29 13:26:12;;;;;;;;;;;12.20;99.90;;;;;;5074003;28;20376;-79
2022/01/29 13:28:45;;;;;;;;;;;12.20;99.90;;;;;;5074215;28;19920;-79
2022/01/29 13:31:11;;;;;;;;;;;12.30;99.90;;;;;;5074142;28;19912;-78
2022/01/29 13:33:36;;;;;;;;;;;12.30;99.90;;;;;;5073909;28;20046;-78
2022/01/29 13:36:02;;;;;;;;;;;12.30;99.90;;;;;;5074152;28;19909;-79
2022/01/29 13:38:29;;;;;;;;;;;12.30;99.90;;;;;;5073845;28;19908;-79
2022/01/29 13:40:57;;;;;;;;;;;12.30;99.90;;;;;;5055875;28;19915;-79
2022/01/29 13:43:27;;;;;;;;;;;12.30;99.90;;;;;;5073802;28;19908;-78
2022/01/29 13:45:54;;;;;;;;;;;12.20;99.90;;;;;;5074042;28;19909;-78
2022/01/29 13:48:20;;;;;;;;;;;12.50;99.90;;;;;;5073813;28;19912;-78
2022/01/29 13:50:47;;;;;;;;;;;12.50;99.90;;;;;;5055721;28;19912;-78
2022/01/29 13:53:16;;;;;;;;;;;12.50;99.90;;;;;;5073625;28;20004;-78
2022/01/29 13:56:01;;;;;;;;;;;12.40;99.90;;;;;;5073673;28;19909;-78
2022/01/29 13:58:42;;;;;;;;;;;12.40;99.90;;;;;;5073634;28;19908;-79
2022/01/29 14:01:07;;;;;;;;;;;12.30;99.90;;;;;;5073659;28;20379;-79
2022/01/29 14:03:45;;;;;;;;;;;12.50;99.90;;;;;;5074028;28;19909;-79
2022/01/29 14:06:26;;;;;;;;;;;12.30;99.90;;;;;;5073570;28;19909;-78
2022/01/29 14:09:12;;;;;;;;;;;12.40;99.90;;;;;;5055505;28;19980;-79
2022/01/29 14:12:13;;;;;;;;;;;12.60;99.90;;;;;;5073471;28;19944;-78
2022/01/29 14:14:42;;;;;;;;;;;12.60;99.90;;;;;;4991917;28;19922;-79
2022/01/29 14:17:10;;;;;;;;;;;12.60;99.90;;;;;;5041944;28;19909;-78
2022/01/29 14:19:37;;;;;;;;;;;12.70;99.90;;;;;;5053299;28;19920;-78
2022/01/29 14:22:03;;;;;;;;;;;12.80;99.90;;;;;;5053718;28;20365;-79
2022/01/29 14:24:29;;;;;;;;;;;12.80;99.90;;;;;;5035464;28;19909;-78
2022/01/29 14:26:55;;;;;;;;;;;12.50;99.90;;;;;;5035652;28;19916;-78
2022/01/29 14:29:21;;;;;;;;;;;12.40;99.90;;;;;;5053283;28;19913;-79
2022/01/29 14:31:47;;;;;;;;;;;12.20;99.90;;;;;;5053219;28;19913;-79
2022/01/29 14:34:12;;;;;;;;;;;12.30;99.90;;;;;;5035316;28;19908;-79
2022/01/29 14:36:38;;;;;;;;;;;12.20;99.90;;;;;;5053493;28;19916;-78